createdAt,value
2018-10-05T00:01:31.340Z,20.52
2018-10-05T00:04:00.210Z,22.37
2018-10-05T00:06:29.048Z,18.60
2018-10-05T00:08:58.176Z,23.27
2018-10-05T00:11:27.014Z,19.17
2018-10-05T00:13:56.462Z,20.35
2018-10-05T00:16:25.364Z,17.27
2018-10-05T00:18:54.173Z,15.58
2018-10-05T00:21:23.129Z,20.97
2018-10-05T00:23:52.003Z,20.30
2018-10-05T00:26:21.594Z,17.00
2018-10-05T00:28:50.623Z,21.00
2018-10-05T00:31:19.598Z,20.15
2018-10-05T00:33:49.044Z,20.65
2018-10-05T00:36:18.609Z,24.25
2018-10-05T00:38:47.793Z,24.98
2018-10-05T00:41:16.969Z,19.65
2018-10-05T00:43:45.922Z,22.15
2018-10-05T00:46:14.785Z,16.67
2018-10-05T00:48:43.752Z,17.48
2018-10-05T00:51:12.912Z,16.32
2018-10-05T00:53:41.931Z,21.15
2018-10-05T00:56:10.938Z,14.03
2018-10-05T00:58:39.737Z,20.02
2018-10-05T01:01:08.948Z,21.75
2018-10-05T01:03:37.846Z,17.75
2018-10-05T01:06:07.556Z,22.13
2018-10-05T01:08:36.610Z,20.35
2018-10-05T01:11:05.429Z,17.52
2018-10-05T01:13:34.368Z,18.12
2018-10-05T01:16:03.153Z,22.77
2018-10-05T01:18:31.984Z,17.02
2018-10-05T01:21:01.374Z,24.25
2018-10-05T01:23:30.155Z,19.75
2018-10-05T01:25:59.158Z,18.92
2018-10-05T01:28:28.655Z,18.77
2018-10-05T01:30:57.578Z,20.52
2018-10-05T01:33:26.444Z,18.87
2018-10-05T01:35:55.367Z,20.75
2018-10-05T01:38:24.557Z,16.82
2018-10-05T01:40:53.490Z,23.47
2018-10-05T01:43:22.664Z,23.47
2018-10-05T01:45:51.630Z,19.60
2018-10-05T01:48:21.500Z,24.40
2018-10-05T01:50:50.653Z,27.13
2018-10-05T01:53:19.617Z,26.12
2018-10-05T01:55:48.510Z,24.35
2018-10-05T01:58:17.313Z,25.43
2018-10-05T02:00:46.146Z,23.10
2018-10-05T02:03:15.699Z,23.87
2018-10-05T02:05:44.683Z,23.20
2018-10-05T02:08:13.599Z,24.75
2018-10-05T02:10:42.392Z,21.57
2018-10-05T02:16:19.817Z,17.80
2018-10-05T02:18:48.667Z,21.97
2018-10-05T02:21:17.449Z,26.97
2018-10-05T02:23:46.410Z,23.18
2018-10-05T02:26:15.557Z,26.82
2018-10-05T02:28:44.920Z,30.45
2018-10-05T02:31:13.707Z,29.82
2018-10-05T02:33:42.590Z,32.85
2018-10-05T02:36:11.573Z,26.75
2018-10-05T02:38:40.462Z,25.80
2018-10-05T02:41:09.392Z,28.00
2018-10-05T02:43:39.176Z,27.58
2018-10-05T02:46:08.443Z,27.75
2018-10-05T02:48:37.617Z,36.90
2018-10-05T02:51:06.587Z,24.23
2018-10-05T02:53:36.243Z,29.57
2018-10-05T02:56:05.156Z,28.17
2018-10-05T02:58:33.978Z,33.85
2018-10-05T03:01:13.898Z,30.60
2018-10-05T03:03:42.837Z,25.35
2018-10-05T03:06:11.648Z,26.27
2018-10-05T03:08:41.308Z,27.07
2018-10-05T03:11:10.227Z,27.35
2018-10-05T03:13:39.894Z,29.45
2018-10-05T03:16:08.798Z,32.50
2018-10-05T03:18:38.104Z,31.02
2018-10-05T03:21:07.418Z,25.45
2018-10-05T03:23:36.216Z,25.25
2018-10-05T03:26:05.064Z,29.60
2018-10-05T03:28:34.242Z,26.15
2018-10-05T03:31:03.232Z,26.90
2018-10-05T03:33:32.124Z,27.93
2018-10-05T03:36:00.949Z,29.10
2018-10-05T03:38:29.915Z,28.27
2018-10-05T03:40:58.822Z,23.42
2018-10-05T03:43:27.648Z,25.37
2018-10-05T03:45:56.656Z,23.67
2018-10-05T03:48:25.454Z,25.40
2018-10-05T03:50:54.284Z,27.32
2018-10-05T03:53:23.161Z,30.50
2018-10-05T03:55:52.487Z,26.25
2018-10-05T03:58:21.289Z,27.60
2018-10-05T04:00:50.673Z,32.85
2018-10-05T04:03:19.467Z,30.23
2018-10-05T04:05:48.372Z,27.25
2018-10-05T04:08:17.227Z,38.75
2018-10-05T04:10:46.045Z,32.93
2018-10-05T04:13:15.099Z,31.85
2018-10-05T04:15:44.584Z,35.48
2018-10-05T04:18:13.493Z,33.92
2018-10-05T04:20:42.449Z,36.70
2018-10-05T04:23:11.331Z,40.98
2018-10-05T04:25:40.432Z,32.70
2018-10-05T04:28:09.545Z,32.95
2018-10-05T04:30:38.363Z,34.80
2018-10-05T04:33:07.195Z,42.05
2018-10-05T04:35:36.276Z,38.65
2018-10-05T04:38:05.197Z,34.18
2018-10-05T04:40:33.972Z,34.85
2018-10-05T04:43:02.994Z,34.88
2018-10-05T04:48:24.981Z,36.40
2018-10-05T04:51:03.803Z,36.48
2018-10-05T04:53:32.662Z,35.23
2018-10-05T04:56:01.449Z,35.43
2018-10-05T04:58:30.175Z,37.93
2018-10-05T05:01:02.715Z,33.92
2018-10-05T05:03:31.587Z,30.82
2018-10-05T05:06:00.362Z,28.60
2018-10-05T05:08:29.307Z,29.55
2018-10-05T05:11:06.147Z,28.07
2018-10-05T05:13:35.155Z,33.20
2018-10-05T05:16:03.936Z,32.75
2018-10-05T05:18:34.092Z,34.50
2018-10-05T05:21:03.251Z,38.53
2018-10-05T05:23:32.097Z,33.98
2018-10-05T05:26:00.893Z,35.85
2018-10-05T05:28:29.956Z,34.05
2018-10-05T05:30:59.270Z,33.05
2018-10-05T05:33:34.384Z,36.77
2018-10-05T05:36:03.359Z,30.70
2018-10-05T05:38:32.738Z,28.10
2018-10-05T05:41:01.904Z,29.15
2018-10-05T05:43:31.154Z,31.93
2018-10-05T05:46:00.334Z,25.82
2018-10-05T05:48:31.606Z,32.53
2018-10-05T05:51:01.603Z,30.75
2018-10-05T05:53:31.068Z,35.08
2018-10-05T05:56:00.223Z,29.63
2018-10-05T05:58:29.515Z,35.85
2018-10-05T06:00:58.674Z,29.07
2018-10-05T06:09:15.133Z,27.60
2018-10-05T06:11:44.044Z,26.17
2018-10-05T06:14:12.829Z,30.55
2018-10-05T06:16:41.839Z,26.00
2018-10-05T06:19:10.841Z,26.62
2018-10-05T06:21:40.494Z,27.52
2018-10-05T06:24:09.336Z,26.00
2018-10-05T06:26:38.449Z,23.45
2018-10-05T06:29:08.007Z,29.20
2018-10-05T06:31:37.062Z,26.00
2018-10-05T06:34:05.977Z,26.48
2018-10-05T06:39:46.041Z,29.82
2018-10-05T06:42:15.167Z,22.58
2018-10-05T06:44:43.836Z,22.02
2018-10-05T06:47:12.800Z,24.52
2018-10-05T06:49:42.334Z,21.55
2018-10-05T06:52:12.483Z,23.55
2018-10-05T06:54:41.353Z,23.10
2018-10-05T07:00:14.701Z,30.23
2018-10-05T07:02:44.673Z,23.85
2018-10-05T07:05:13.822Z,26.12
2018-10-05T07:07:43.775Z,24.20
2018-10-05T07:10:14.718Z,23.67
2018-10-05T07:12:43.818Z,26.62
2018-10-05T07:15:13.007Z,23.83
2018-10-05T07:17:45.245Z,24.07
2018-10-05T07:20:14.475Z,24.30
2018-10-05T07:22:43.642Z,22.63
2018-10-05T07:25:12.771Z,21.62
2018-10-05T07:27:41.705Z,21.80
2018-10-05T07:30:13.466Z,23.60
2018-10-05T07:32:42.545Z,24.17
2018-10-05T07:35:11.665Z,26.63
2018-10-05T07:37:40.924Z,22.70
2018-10-05T07:40:10.090Z,25.00
2018-10-05T07:42:39.294Z,27.17
2018-10-05T07:45:08.154Z,25.17
2018-10-05T07:47:37.109Z,26.10
2018-10-05T07:50:06.582Z,24.33
2018-10-05T07:52:35.940Z,22.90
2018-10-05T07:55:04.880Z,19.67
2018-10-05T07:57:35.127Z,23.60
2018-10-05T08:00:04.981Z,22.37
2018-10-05T08:02:34.055Z,23.47
2018-10-05T08:05:09.996Z,21.60
2018-10-05T08:07:39.627Z,20.30
2018-10-05T08:10:08.619Z,20.10
2018-10-05T08:12:37.466Z,18.87
2018-10-05T08:15:07.062Z,19.90
2018-10-05T08:17:36.225Z,18.30
2018-10-05T08:20:05.171Z,17.63
2018-10-05T08:22:34.019Z,19.20
2018-10-05T08:25:02.995Z,14.30
2018-10-05T08:27:32.210Z,17.10
2018-10-05T08:30:01.352Z,16.40
2018-10-05T08:32:30.939Z,15.90
2018-10-05T08:34:59.865Z,13.57
2018-10-05T08:37:28.785Z,14.70
2018-10-05T08:39:58.011Z,19.20
2018-10-05T08:42:26.864Z,14.77
2018-10-05T08:44:55.791Z,12.00
2018-10-05T08:47:24.642Z,13.37
2018-10-05T08:49:53.504Z,13.73
2018-10-05T08:52:22.355Z,13.40
2018-10-05T08:54:51.805Z,14.73
2018-10-05T08:57:20.853Z,16.63
2018-10-05T08:59:49.869Z,13.17
2018-10-05T09:02:18.598Z,15.00
2018-10-05T09:04:47.448Z,13.13
2018-10-05T09:07:16.481Z,14.37
2018-10-05T09:09:45.285Z,12.10
2018-10-05T09:12:14.272Z,12.20
2018-10-05T09:14:43.176Z,12.70
2018-10-05T09:17:11.995Z,14.23
2018-10-05T09:19:40.949Z,11.90
2018-10-05T09:22:09.855Z,11.53
2018-10-05T09:24:38.674Z,15.83
2018-10-05T09:27:07.696Z,13.43
2018-10-05T09:29:37.033Z,13.57
2018-10-05T09:32:06.095Z,13.87
2018-10-05T09:34:35.978Z,12.63
2018-10-05T09:37:05.603Z,11.33
2018-10-05T09:39:34.537Z,11.80
2018-10-05T09:42:03.396Z,11.27
2018-10-05T09:44:33.239Z,11.67
2018-10-05T09:47:02.077Z,10.57
2018-10-05T09:49:30.936Z,11.10
2018-10-05T09:51:59.906Z,11.03
2018-10-05T09:54:28.753Z,9.77
2018-10-05T09:56:58.478Z,10.97
2018-10-05T09:59:27.229Z,10.37
2018-10-05T10:02:01.206Z,11.20
2018-10-05T10:04:29.947Z,12.03
2018-10-05T10:06:58.902Z,10.57
2018-10-05T10:09:27.723Z,14.07
2018-10-05T10:11:56.628Z,13.93
2018-10-05T10:14:25.617Z,9.50
2018-10-05T10:16:55.073Z,11.60
2018-10-05T10:19:23.995Z,10.90
2018-10-05T10:21:52.785Z,9.57
2018-10-05T10:24:21.725Z,13.07
2018-10-05T10:26:51.017Z,13.20
2018-10-05T10:29:19.998Z,15.27
2018-10-05T10:31:48.730Z,16.73
2018-10-05T10:34:17.758Z,11.23
2018-10-05T10:36:46.700Z,9.20
2018-10-05T10:39:16.080Z,11.20
2018-10-05T10:41:45.568Z,8.63
2018-10-05T10:44:14.485Z,7.63
2018-10-05T10:46:43.522Z,7.40
2018-10-05T10:49:12.331Z,8.20
2018-10-05T10:51:41.147Z,10.33
2018-10-05T10:54:10.108Z,10.20
2018-10-05T10:56:38.921Z,9.13
2018-10-05T10:59:08.033Z,9.97
2018-10-05T11:01:36.961Z,7.13
2018-10-05T11:04:05.908Z,9.83
2018-10-05T11:06:36.807Z,9.27
2018-10-05T11:09:07.142Z,8.00
2018-10-05T11:11:38.107Z,6.13
2018-10-05T11:17:04.529Z,4.70
2018-10-05T11:19:33.337Z,4.93
2018-10-05T11:22:02.192Z,5.63
2018-10-05T11:24:31.085Z,4.10
2018-10-05T11:26:59.907Z,4.27
2018-10-05T11:29:28.724Z,3.90
2018-10-05T11:31:58.287Z,4.10
2018-10-05T11:34:27.189Z,6.17
2018-10-05T11:36:56.717Z,5.40
2018-10-05T11:39:25.791Z,4.40
2018-10-05T11:41:54.749Z,5.63
2018-10-05T11:44:23.529Z,6.87
2018-10-05T11:46:52.571Z,4.30
2018-10-05T11:49:21.450Z,4.73
2018-10-05T11:51:50.244Z,6.23
2018-10-05T11:54:19.209Z,4.77
2018-10-05T11:56:48.153Z,3.10
2018-10-05T11:59:17.840Z,3.20
2018-10-05T12:01:46.824Z,3.23
2018-10-05T12:04:15.747Z,4.30
2018-10-05T12:06:44.601Z,3.63
2018-10-05T12:09:13.641Z,3.20
2018-10-05T12:11:43.108Z,2.90
2018-10-05T12:14:12.003Z,3.53
2018-10-05T12:16:40.857Z,5.90
2018-10-05T12:19:09.642Z,3.03
2018-10-05T12:21:38.561Z,2.93
2018-10-05T12:24:07.514Z,5.20
2018-10-05T12:26:37.174Z,3.03
2018-10-05T12:29:06.364Z,3.70
2018-10-05T12:31:35.306Z,4.50
2018-10-05T12:34:04.820Z,5.20
2018-10-05T12:36:33.668Z,3.50
2018-10-05T12:39:03.965Z,8.07
2018-10-05T12:41:33.468Z,6.27
2018-10-05T12:44:02.760Z,2.90
2018-10-05T12:46:31.811Z,3.20
2018-10-05T12:49:00.628Z,2.80
2018-10-05T12:51:29.493Z,2.60
2018-10-05T12:53:58.571Z,2.47
2018-10-05T12:56:27.308Z,4.77
2018-10-05T12:58:56.164Z,3.70
2018-10-05T13:01:24.993Z,3.30
2018-10-05T13:03:54.526Z,6.63
2018-10-05T13:06:23.738Z,3.90
2018-10-05T13:08:52.475Z,4.07
2018-10-05T13:11:21.294Z,4.37
2018-10-05T13:13:50.410Z,3.30
2018-10-05T13:16:19.178Z,2.93
2018-10-05T13:18:53.773Z,3.70
2018-10-05T13:21:22.633Z,4.73
2018-10-05T13:23:51.394Z,4.93
2018-10-05T13:26:20.187Z,3.10
2018-10-05T13:28:48.866Z,4.03
2018-10-05T13:31:17.674Z,3.43
2018-10-05T13:33:46.359Z,3.00
2018-10-05T13:36:15.404Z,3.30
2018-10-05T13:38:44.573Z,2.90
2018-10-05T13:41:14.033Z,4.80
2018-10-05T13:43:42.736Z,2.77
2018-10-05T13:46:11.471Z,2.60
2018-10-05T13:48:40.394Z,3.00
2018-10-05T13:51:09.818Z,3.93
2018-10-05T13:53:38.718Z,3.30
2018-10-05T13:56:07.538Z,4.07
2018-10-05T13:58:36.416Z,7.23
2018-10-05T14:01:05.369Z,2.90
2018-10-05T14:03:34.140Z,4.80
2018-10-05T14:06:03.183Z,2.90
2018-10-05T14:08:32.137Z,5.10
2018-10-05T14:11:01.074Z,5.07
2018-10-05T14:13:30.008Z,3.70
2018-10-05T14:15:58.800Z,6.47
2018-10-05T14:18:28.300Z,4.50
2018-10-05T14:20:56.957Z,2.80
2018-10-05T14:23:29.084Z,2.57
2018-10-05T14:25:58.127Z,4.00
2018-10-05T14:28:26.830Z,2.60
2018-10-05T14:30:56.059Z,3.67
2018-10-05T14:33:25.349Z,3.23
2018-10-05T14:35:54.858Z,3.13
2018-10-05T14:38:23.757Z,2.73
2018-10-05T14:40:52.484Z,3.40
2018-10-05T14:43:21.167Z,2.80
2018-10-05T14:45:49.925Z,2.93
2018-10-05T14:48:18.714Z,3.10
2018-10-05T14:50:47.984Z,3.53
2018-10-05T14:53:17.700Z,2.80
2018-10-05T14:55:46.729Z,3.80
2018-10-05T14:58:15.605Z,3.40
2018-10-05T15:00:44.398Z,2.97
2018-10-05T15:03:13.424Z,4.40
2018-10-05T15:05:42.327Z,2.77
2018-10-05T15:08:11.573Z,3.40
2018-10-05T15:10:40.361Z,3.00
2018-10-05T15:13:09.394Z,2.60
2018-10-05T15:15:38.959Z,2.90
2018-10-05T15:18:08.343Z,3.53
2018-10-05T15:20:37.070Z,3.00
2018-10-05T15:23:06.146Z,3.60
2018-10-05T15:25:35.124Z,3.03
2018-10-05T15:28:21.514Z,3.10
2018-10-05T15:30:50.346Z,2.97
2018-10-05T15:33:19.787Z,6.43
2018-10-05T15:35:48.882Z,3.30
2018-10-05T15:38:18.236Z,4.23
2018-10-05T15:40:47.117Z,5.40
2018-10-05T15:43:15.929Z,3.10
2018-10-05T15:45:45.052Z,4.33
2018-10-05T15:48:14.057Z,3.20
2018-10-05T15:50:42.966Z,4.87
2018-10-05T15:53:12.402Z,7.43
2018-10-05T15:55:41.427Z,3.93
2018-10-05T15:58:10.197Z,3.73
2018-10-05T16:00:39.137Z,3.83
2018-10-05T16:03:08.100Z,5.93
2018-10-05T16:05:36.992Z,3.90
2018-10-05T16:08:06.011Z,6.53
2018-10-05T16:10:37.139Z,6.23
2018-10-05T16:13:06.425Z,4.73
2018-10-05T16:15:35.680Z,5.67
2018-10-05T16:18:10.864Z,6.90
2018-10-05T16:20:39.545Z,12.10
2018-10-05T16:23:09.107Z,5.83
2018-10-05T16:25:38.325Z,5.00
2018-10-05T16:28:07.550Z,4.97
2018-10-05T16:30:36.713Z,3.90
2018-10-05T16:33:05.816Z,10.20
2018-10-05T16:35:35.337Z,6.33
2018-10-05T16:38:04.106Z,6.03
2018-10-05T16:40:32.991Z,6.03
2018-10-05T16:43:01.933Z,7.70
2018-10-05T16:45:30.842Z,4.67
2018-10-05T16:48:00.573Z,4.37
2018-10-05T16:50:29.348Z,7.73
2018-10-05T16:52:58.180Z,9.00
2018-10-05T16:55:27.122Z,7.23
2018-10-05T16:57:55.914Z,5.20
2018-10-05T17:00:25.568Z,5.77
2018-10-05T17:02:54.586Z,7.20
2018-10-05T17:05:24.003Z,7.50
2018-10-05T17:07:53.256Z,6.43
2018-10-05T17:10:22.297Z,4.70
2018-10-05T17:12:51.240Z,4.97
2018-10-05T17:15:20.053Z,5.20
2018-10-05T17:17:49.073Z,5.10
2018-10-05T17:20:18.221Z,6.13
2018-10-05T17:23:04.949Z,4.67
2018-10-05T17:25:35.366Z,5.40
2018-10-05T17:28:04.306Z,7.30
2018-10-05T17:30:33.335Z,4.80
2018-10-05T17:33:02.198Z,5.40
2018-10-05T17:35:31.072Z,7.70
2018-10-05T17:38:01.163Z,10.37
2018-10-05T17:40:31.370Z,5.90
2018-10-05T17:43:01.188Z,7.30
2018-10-05T17:45:30.201Z,10.90
2018-10-05T17:47:59.332Z,10.50
2018-10-05T17:50:32.637Z,5.33
2018-10-05T17:53:01.667Z,7.43
2018-10-05T17:55:30.773Z,5.60
2018-10-05T17:58:02.295Z,10.10
2018-10-05T18:00:31.238Z,5.97
2018-10-05T18:03:00.374Z,11.60
2018-10-05T18:05:29.721Z,10.10
2018-10-05T18:07:58.997Z,6.37
2018-10-05T18:10:28.058Z,7.40
2018-10-05T18:12:56.982Z,12.53
2018-10-05T18:15:25.930Z,8.07
2018-10-05T18:18:00.903Z,7.33
2018-10-05T18:20:29.975Z,7.30
2018-10-05T18:22:58.804Z,11.03
2018-10-05T18:25:29.375Z,8.37
2018-10-05T18:27:58.532Z,9.07
2018-10-05T18:30:27.371Z,8.40
2018-10-05T18:32:56.333Z,10.63
2018-10-05T18:35:25.349Z,11.20
2018-10-05T18:37:54.462Z,8.90
2018-10-05T18:40:23.418Z,8.63
2018-10-05T18:42:53.977Z,9.20
2018-10-05T18:45:23.123Z,13.20
2018-10-05T18:47:52.368Z,7.97
2018-10-05T18:50:21.290Z,8.30
2018-10-05T18:52:50.163Z,7.57
2018-10-05T18:55:37.921Z,9.07
2018-10-05T18:58:06.852Z,8.73
2018-10-05T19:00:36.015Z,11.10
2018-10-05T19:03:05.216Z,9.73
2018-10-05T19:05:34.083Z,10.77
2018-10-05T19:08:02.946Z,8.67
2018-10-05T19:10:32.081Z,11.80
2018-10-05T19:13:04.319Z,10.27
2018-10-05T19:15:33.379Z,10.27
2018-10-05T19:18:02.576Z,15.13
2018-10-05T19:20:31.501Z,12.73
2018-10-05T19:23:00.507Z,11.20
2018-10-05T19:25:30.263Z,11.03
2018-10-05T19:27:59.378Z,9.40
2018-10-05T19:30:28.427Z,10.03
2018-10-05T19:32:58.419Z,8.90
2018-10-05T19:35:27.295Z,9.00
2018-10-05T19:37:56.379Z,11.13
2018-10-05T19:40:25.497Z,9.50
2018-10-05T19:42:54.445Z,10.17
2018-10-05T19:45:23.322Z,8.60
2018-10-05T19:47:52.304Z,9.80
2018-10-05T19:50:21.522Z,10.40
2018-10-05T19:52:50.554Z,12.80
2018-10-05T19:55:19.641Z,12.67
2018-10-05T19:57:48.489Z,12.67
2018-10-05T20:00:17.548Z,11.60
2018-10-05T20:02:46.597Z,14.20
2018-10-05T20:05:15.607Z,12.83
2018-10-05T20:07:44.509Z,10.77
2018-10-05T20:10:13.975Z,9.27
2018-10-05T20:12:42.787Z,13.93
2018-10-05T20:15:11.776Z,10.63
2018-10-05T20:17:40.765Z,15.20
2018-10-05T20:20:09.697Z,12.50
2018-10-05T20:22:38.554Z,9.90
2018-10-05T20:25:07.501Z,13.30
2018-10-05T20:27:37.451Z,9.83
2018-10-05T20:30:07.680Z,9.80
2018-10-05T20:32:36.660Z,13.83
2018-10-05T20:35:05.693Z,10.63
2018-10-05T20:37:34.970Z,10.87
2018-10-05T20:40:03.614Z,9.70
2018-10-05T20:42:32.491Z,8.43
2018-10-05T20:45:01.476Z,16.90
2018-10-05T20:47:30.443Z,11.63
2018-10-05T20:49:59.313Z,11.67
2018-10-05T20:52:28.294Z,13.50
2018-10-05T20:54:57.210Z,10.87
2018-10-05T20:57:26.283Z,15.30
2018-10-05T20:59:55.154Z,12.60
2018-10-05T21:02:24.162Z,13.70
2018-10-05T21:04:53.170Z,11.80
2018-10-05T21:07:22.249Z,11.97
2018-10-05T21:09:51.852Z,20.63
2018-10-05T21:12:21.155Z,13.10
2018-10-05T21:14:50.258Z,14.23
2018-10-05T21:17:19.472Z,13.77
2018-10-05T21:19:48.505Z,11.30
2018-10-05T21:22:17.969Z,12.60
2018-10-05T21:24:46.982Z,11.47
2018-10-05T21:27:16.040Z,11.53
2018-10-05T21:29:44.892Z,15.53
2018-10-05T21:32:13.979Z,11.80
2018-10-05T21:34:42.800Z,12.57
2018-10-05T21:37:11.613Z,14.33
2018-10-05T21:39:40.571Z,13.97
2018-10-05T21:42:09.720Z,9.87
2018-10-05T21:44:39.172Z,13.97
2018-10-05T21:47:08.262Z,10.53
2018-10-05T21:49:37.159Z,12.13
2018-10-05T21:52:06.067Z,11.70
2018-10-05T21:54:35.215Z,14.07
2018-10-05T21:57:04.120Z,11.20
2018-10-05T21:59:32.986Z,12.20
2018-10-05T22:02:01.944Z,11.53
2018-10-05T22:04:30.933Z,11.97
2018-10-05T22:06:59.894Z,11.43
2018-10-05T22:09:28.893Z,10.70
2018-10-05T22:11:57.911Z,11.93
2018-10-05T22:14:26.865Z,10.00
2018-10-05T22:16:55.816Z,13.20
2018-10-05T22:19:25.270Z,9.77
2018-10-05T22:21:54.159Z,13.83
2018-10-05T22:24:23.122Z,12.70
2018-10-05T22:26:52.038Z,11.27
2018-10-05T22:29:21.004Z,14.13
2018-10-05T22:31:51.534Z,12.93
2018-10-05T22:34:20.576Z,12.33
2018-10-05T22:36:49.800Z,13.83
2018-10-05T22:39:18.731Z,10.53
2018-10-05T22:41:48.350Z,12.60
2018-10-05T22:44:17.415Z,10.70
2018-10-05T22:46:46.444Z,10.57
2018-10-05T22:49:16.082Z,13.03
2018-10-05T22:51:45.087Z,9.83
2018-10-05T22:54:13.984Z,17.13
2018-10-05T22:56:42.855Z,11.37
2018-10-05T22:59:11.861Z,40.07
2018-10-05T23:01:40.866Z,24.90
2018-10-05T23:04:11.430Z,20.17
2018-10-05T23:06:40.488Z,18.50
2018-10-05T23:09:10.008Z,12.10
2018-10-05T23:11:38.937Z,11.80
2018-10-05T23:14:08.087Z,10.60
2018-10-05T23:16:37.597Z,12.03
2018-10-05T23:19:06.580Z,13.20
2018-10-05T23:21:35.473Z,16.77
2018-10-05T23:24:05.222Z,12.60
2018-10-05T23:26:34.234Z,13.67
2018-10-05T23:29:03.291Z,14.70
2018-10-05T23:31:32.730Z,12.80
2018-10-05T23:34:01.612Z,13.60
2018-10-05T23:36:30.423Z,13.13
2018-10-05T23:38:59.400Z,14.47
2018-10-05T23:41:28.277Z,13.93
2018-10-05T23:43:57.164Z,13.37
2018-10-05T23:46:26.128Z,14.33
2018-10-05T23:48:55.305Z,14.50
2018-10-05T23:51:24.264Z,14.10
2018-10-05T23:53:53.215Z,14.93
2018-10-05T23:56:22.641Z,14.90
2018-10-05T23:58:51.582Z,20.00
